Terminal Aerodrome Forecast
Issued by NWS Cleveland, OH

Home | Current Version | Previous Version | Graphics & Text | Print | Product List | Glossary On
Versions: 1 2 3 4 5 6 7 8 9 10 11 12 13 14 15 16 17 18 19 20 21
000
FTUS41 KCLE 132033 AAB
TAFYNG
TAF AMD
KYNG 132033Z 1321/1418 33010KT P6SM VCSH SCT025 OVC035
      TEMPO 1321/1323 1 1/2SM -SHSN OVC015
     FM140300 30004KT P6SM BKN035
     FM141200 00000KT P6SM SCT120=

USA.gov is the U.S. government's official web portal to all federal, state and local government web resources and services.